FranceFixed distance
Ultra 01 - 60km
22 Aug2020
Distance
60km
Finishers
141130 men11 women
Winning time
6:22:33h
Median pace
6.46km/h
Pace distribution
141 finishers · 3.46–9.41 km/h · mean 6.51
Every finisher ran the same 60 km course, so these paces are directly comparable.
Histogram of finisher pace. 141 finishers ranged from 3.46 to 9.41 kilometres per hour, with a mean of 6.51 and a median of 6.46. The busiest band is 5.5 to 6.0 kilometres per hour, with 27 finishers.
Results
Ranks 1–50 of 141
| Rank | Runner | Time | Pace | Cat. | Placing |
|---|---|---|---|---|---|
| 1 | Team Lmr/Kinetick | 6:22:33h | 9.41 | M35 | 1st M · 1st M35 |
| 2 | Sens Route Trail | 6:25:49h | 9.33 | M35 | 2nd M · 2nd M35 |
| 3 | X Bionic / Sidas | 6:27:06h | 9.30 | M45 | 3rd M · 1st M45 |
| 4 | Traileurs des Monts D'... | 6:43:16h | 8.93 | M35 | 4th M · 3rd M35 |
| 5 | 6:50:20h | 8.77 | M35 | 5th M · 4th M35 | |
| 6 | S/L E. Ceyrat A. | 6:52:08h | 8.73 | M23 | 6th M · 1st M23 |
| 7 | Lons Athle 39 | 6:56:35h | 8.64 | M40 | 7th M · 1st M40 |
| 8 | 7:06:19h | 8.44 | M40 | 8th M · 2nd M40 | |
| 9 | 7:11:20h | 8.35 | M23 | 9th M · 2nd M23 | |
| 10 | 7:14:53h | 8.28 | MU23 | 10th M · 1st MU23 | |
| 11 | Team Trail Jura | 7:16:14h | 8.25 | M23 | 11th M · 3rd M23 |
| 12 | Team Trail des Conches | 7:19:52h | 8.18 | M23 | 12th M · 4th M23 |
| 13 | Inov-8 | 7:24:59h | 8.09 | M23 | 13th M · 5th M23 |
| 14 | 7:31:53h | 7.97 | M23 | 14th M · 6th M23 | |
| 15 | North Run Team | 7:41:04h | 7.81 | M35 | 15th M · 5th M35 |
| 16 | 7:43:59h | 7.76 | M35 | 16th M · 6th M35 | |
| 17 | 7:46:41h | 7.71 | M23 | 17th M · 7th M23 | |
| 18 | 7:49:42h | 7.66 | M45 | 18th M · 2nd M45 | |
| 19 | 7:51:09h | 7.64 | M23 | 19th M · 8th M23 | |
| 20 | Team Ap'Héros/Off Auff... | 7:51:09h | 7.64 | M45 | 19th M · 3rd M45 |
| 21 | Atemia | 7:52:05h | 7.63 | M35 | 21st M · 7th M35 |
| 22 | Ozarm/Wgtn/Mieltonia | 7:52:15h | 7.62 | M23 | 22nd M · 9th M23 |
| 23 | LA Forestière | 7:53:19h | 7.61 | M23 | 23rd M · 10th M23 |
| 24 | Sens Route Trail | 7:53:47h | 7.60 | W35 | 1st F · 1st W35 |
| 25 | 7:56:08h | 7.56 | M23 | 24th M · 11th M23 | |
| 26 | 7:57:40h | 7.54 | W23 | 2nd F · 1st W23 | |
| 27 | Rolex Sport Montagne /... | 7:57:57h | 7.53 | M35 | 25th M · 8th M35 |
| 28 | Gigidag Club | 7:58:28h | 7.52 | M35 | 26th M · 9th M35 |
| 29 | 7:58:40h | 7.52 | WU23 | 3rd F · 1st WU23 | |
| 30 | S/L Val Morteau Athlet... | 8:03:22h | 7.45 | M40 | 27th M · 3rd M40 |
| 31 | 8:05:56h | 7.41 | M23 | 28th M · 12th M23 | |
| 32 | Taktik Sport | 8:09:38h | 7.35 | M35 | 29th M · 10th M35 |
| 33 | 8:11:18h | 7.33 | M35 | 30th M · 11th M35 | |
| 34 | Team Zéro Volonté | 8:14:30h | 7.28 | M23 | 31st M · 13th M23 |
| 35 | 8:14:31h | 7.28 | M23 | 32nd M · 14th M23 | |
| 36 | 8:16:34h | 7.25 | M23 | 33rd M · 15th M23 | |
| 37 | 8:16:36h | 7.25 | M40 | 34th M · 4th M40 | |
| 38 | 8:19:31h | 7.21 | M35 | 35th M · 12th M35 | |
| 39 | 8:22:14h | 7.17 | M55 | 36th M · 1st M55 | |
| 40 | 8:25:48h | 7.12 | M35 | 37th M · 13th M35 | |
| 41 | 8:26:26h | 7.11 | MU23 | 38th M · 2nd MU23 | |
| 42 | LA Raye | 8:30:02h | 7.06 | M40 | 39th M · 5th M40 |
| 43 | 8:30:05h | 7.06 | M23 | 40th M · 16th M23 | |
| 44 | Asvel Tri | 8:30:40h | 7.05 | M35 | 41st M · 14th M35 |
| 45 | 8:32:23h | 7.03 | M40 | 42nd M · 6th M40 | |
| 46 | Broceliande Aventure | 8:32:42h | 7.02 | M35 | 43rd M · 15th M35 |
| 47 | Fleurs Athlétisme | 8:33:19h | 7.01 | M35 | 44th M · 16th M35 |
| 48 | 8:33:27h | 7.01 | M23 | 45th M · 17th M23 | |
| 49 | Club Multi Sports de P... | 8:38:58h | 6.94 | W35 | 4th F · 2nd W35 |
| 50 | 8:39:14h | 6.93 | M45 | 46th M · 4th M45 |
- 1Team Lmr/Kinetick1st M · 1st M35Time6:22:33hPace9.41Cat.M35
- 2Sens Route Trail2nd M · 2nd M35Time6:25:49hPace9.33Cat.M35
- 3X Bionic / Sidas3rd M · 1st M45Time6:27:06hPace9.30Cat.M45
- 4Traileurs des Monts D'...4th M · 3rd M35Time6:43:16hPace8.93Cat.M35
- 55th M · 4th M35Time6:50:20hPace8.77Cat.M35
- 6S/L E. Ceyrat A.6th M · 1st M23Time6:52:08hPace8.73Cat.M23
- 7Lons Athle 397th M · 1st M40Time6:56:35hPace8.64Cat.M40
- 88th M · 2nd M40Time7:06:19hPace8.44Cat.M40
- 99th M · 2nd M23Time7:11:20hPace8.35Cat.M23
- 1010th M · 1st MU23Time7:14:53hPace8.28Cat.MU23
- 11Team Trail Jura11th M · 3rd M23Time7:16:14hPace8.25Cat.M23
- 12Team Trail des Conches12th M · 4th M23Time7:19:52hPace8.18Cat.M23
- 13Inov-813th M · 5th M23Time7:24:59hPace8.09Cat.M23
- 1414th M · 6th M23Time7:31:53hPace7.97Cat.M23
- 15North Run Team15th M · 5th M35Time7:41:04hPace7.81Cat.M35
- 1616th M · 6th M35Time7:43:59hPace7.76Cat.M35
- 1717th M · 7th M23Time7:46:41hPace7.71Cat.M23
- 1818th M · 2nd M45Time7:49:42hPace7.66Cat.M45
- 1919th M · 8th M23Time7:51:09hPace7.64Cat.M23
- 20Team Ap'Héros/Off Auff...19th M · 3rd M45Time7:51:09hPace7.64Cat.M45
- 21Atemia21st M · 7th M35Time7:52:05hPace7.63Cat.M35
- 22Ozarm/Wgtn/Mieltonia22nd M · 9th M23Time7:52:15hPace7.62Cat.M23
- 23LA Forestière23rd M · 10th M23Time7:53:19hPace7.61Cat.M23
- 24Sens Route Trail1st F · 1st W35Time7:53:47hPace7.60Cat.W35
- 2524th M · 11th M23Time7:56:08hPace7.56Cat.M23
- 262nd F · 1st W23Time7:57:40hPace7.54Cat.W23
- 27Rolex Sport Montagne /...25th M · 8th M35Time7:57:57hPace7.53Cat.M35
- 28Gigidag Club26th M · 9th M35Time7:58:28hPace7.52Cat.M35
- 293rd F · 1st WU23Time7:58:40hPace7.52Cat.WU23
- 30S/L Val Morteau Athlet...27th M · 3rd M40Time8:03:22hPace7.45Cat.M40
- 3128th M · 12th M23Time8:05:56hPace7.41Cat.M23
- 32Taktik Sport29th M · 10th M35Time8:09:38hPace7.35Cat.M35
- 3330th M · 11th M35Time8:11:18hPace7.33Cat.M35
- 34Team Zéro Volonté31st M · 13th M23Time8:14:30hPace7.28Cat.M23
- 3532nd M · 14th M23Time8:14:31hPace7.28Cat.M23
- 3633rd M · 15th M23Time8:16:34hPace7.25Cat.M23
- 3734th M · 4th M40Time8:16:36hPace7.25Cat.M40
- 3835th M · 12th M35Time8:19:31hPace7.21Cat.M35
- 3936th M · 1st M55Time8:22:14hPace7.17Cat.M55
- 4037th M · 13th M35Time8:25:48hPace7.12Cat.M35
- 4138th M · 2nd MU23Time8:26:26hPace7.11Cat.MU23
- 42LA Raye39th M · 5th M40Time8:30:02hPace7.06Cat.M40
- 4340th M · 16th M23Time8:30:05hPace7.06Cat.M23
- 44Asvel Tri41st M · 14th M35Time8:30:40hPace7.05Cat.M35
- 4542nd M · 6th M40Time8:32:23hPace7.03Cat.M40
- 46Broceliande Aventure43rd M · 15th M35Time8:32:42hPace7.02Cat.M35
- 47Fleurs Athlétisme44th M · 16th M35Time8:33:19hPace7.01Cat.M35
- 4845th M · 17th M23Time8:33:27hPace7.01Cat.M23
- 49Club Multi Sports de P...4th F · 2nd W35Time8:38:58hPace6.94Cat.W35
- 5046th M · 4th M45Time8:39:14hPace6.93Cat.M45
Showing ranks 1–50 of 141